Time;durP1;ratioP1;P1;durP2;ratioP2;P2;SDS_P1;SDS_P2;PMS_P1;PMS_P2;Temp;Humidity;BMP_temperature;BMP_pressure;BME280_temperature;BME280_humidity;BME280_pressure;Samples;Min_cycle;Max_cycle;Signal;HPM_P1;HPM_P2
2022/09/25 00:01:29;;;;;;;12.73;11.63;;;11.60;99.90;;;-141.84;73.67;19177.75;5052959;28;20237;-61
2022/09/25 00:03:57;;;;;;;12.70;11.60;;;11.60;99.90;;;-141.84;74.38;19171.66;5053577;28;20673;-61
2022/09/25 00:06:29;;;;;;;12.90;11.63;;;11.50;99.90;;;-141.84;74.36;19155.41;5052834;28;20229;-60
2022/09/25 00:08:58;;;;;;;13.83;12.50;;;11.50;99.90;;;-141.84;73.91;19167.59;5052619;28;20225;-60
2022/09/25 00:11:29;;;;;;;13.57;12.30;;;11.50;99.90;;;-141.84;74.34;19145.25;5052831;28;20247;-61
2022/09/25 00:13:59;;;;;;;13.07;11.87;;;11.40;99.90;;;-141.84;75.03;19108.69;5052980;28;20244;-60
2022/09/25 00:16:31;;;;;;;13.27;11.87;;;11.30;99.90;;;-141.84;75.36;19124.94;5053206;28;20227;-60
2022/09/25 00:21:52;;;;;;;13.17;11.77;;;11.20;99.90;;;-141.84;76.32;19096.47;5053190;28;20209;-61
2022/09/25 00:24:21;;;;;;;13.03;11.83;;;11.10;99.90;;;-141.84;76.92;19049.75;5052619;28;20229;-61
2022/09/25 00:26:49;;;;;;;14.20;12.70;;;11.10;99.90;;;-141.84;77.46;19055.84;5052484;28;20256;-60
2022/09/25 00:29:20;;;;;;;14.73;13.33;;;11.10;99.90;;;-141.84;76.97;19106.66;5052574;28;20248;-61
2022/09/25 00:31:48;;;;;;;15.10;13.63;;;11.00;99.90;;;-141.84;76.28;19082.25;5052662;28;20213;-60
2022/09/25 00:34:16;;;;;;;15.37;13.87;;;11.00;99.90;;;-141.84;76.04;19068.03;5052467;28;20202;-61
2022/09/25 00:36:44;;;;;;;15.83;14.23;;;11.00;99.90;;;-141.84;76.03;19084.28;5053136;28;20205;-61
2022/09/25 00:39:13;;;;;;;16.03;14.53;;;11.10;99.90;;;-141.84;76.17;19055.84;5052061;28;20228;-61
2022/09/25 00:41:42;;;;;;;16.03;14.43;;;11.00;99.90;;;-141.84;76.93;19070.06;5052127;28;20244;-60
2022/09/25 00:44:51;;;;;;;13.93;12.63;;;11.10;99.90;;;-141.84;76.83;19037.56;5052436;28;20229;-61
2022/09/25 00:47:28;;;;;;;13.50;12.10;;;11.00;99.90;;;-141.84;76.99;19051.78;5052163;28;20310;-61
2022/09/25 00:50:01;;;;;;;14.10;12.80;;;11.00;99.90;;;-141.84;76.97;19037.56;5052221;28;20229;-61
2022/09/25 00:52:31;;;;;;;13.47;12.27;;;10.90;99.90;;;-141.84;77.68;19013.16;5052072;28;20256;-59
2022/09/25 00:55:07;;;;;;;14.70;13.20;;;10.80;99.90;;;-141.84;78.40;19005.03;5052262;28;20181;-61
2022/09/25 00:57:39;;;;;;;14.90;13.43;;;10.80;99.90;;;-141.84;78.27;19009.09;5052337;28;20212;-61
2022/09/25 01:00:12;;;;;;;14.10;12.60;;;10.70;99.90;;;-141.84;78.34;18974.56;5052029;28;20232;-60
2022/09/25 01:02:46;;;;;;;14.83;13.43;;;10.70;99.90;;;-141.84;78.41;19007.06;5051928;28;20225;-59
2022/09/25 01:05:18;;;;;;;15.00;13.60;;;10.70;99.90;;;-141.84;78.58;19017.25;5052044;28;20229;-63
2022/09/25 01:07:51;;;;;;;16.17;14.40;;;10.80;99.90;;;-141.84;78.99;18948.16;5051877;28;20241;-60
2022/09/25 01:10:22;;;;;;;14.73;13.43;;;10.70;99.90;;;-141.84;78.89;18982.69;5051609;28;20236;-60
2022/09/25 01:12:52;;;;;;;14.53;13.23;;;10.70;99.90;;;-141.84;79.38;18923.78;5052337;28;20198;-60
2022/09/25 01:15:31;;;;;;;13.70;12.33;;;10.70;99.90;;;-141.84;79.91;18976.59;5051740;28;20225;-58
2022/09/25 01:18:15;;;;;;;15.00;13.50;;;10.60;99.90;;;-141.84;80.31;18931.91;5051462;28;20756;-62
2022/09/25 01:21:19;;;;;;;14.03;12.83;;;10.50;99.90;;;-141.84;80.77;18944.09;5051614;28;20724;-60
2022/09/25 01:24:18;;;;;;;15.37;13.80;;;10.50;99.90;;;-141.84;79.53;18960.34;5051198;28;20233;-61
2022/09/25 01:27:40;;;;;;;15.37;13.97;;;10.50;99.90;;;-141.84;78.22;18994.88;5051877;28;20228;-59
2022/09/25 01:30:13;;;;;;;14.53;13.23;;;10.60;99.90;;;-141.84;77.88;18962.38;5052079;28;20236;-60
2022/09/25 01:32:58;;;;;;;15.00;13.50;;;10.60;99.90;;;-141.84;78.49;18946.13;5051561;28;20604;-60
2022/09/25 01:35:39;;;;;;;15.50;13.90;;;10.60;99.90;;;-141.84;79.29;18931.91;5051507;28;20229;-60
2022/09/25 01:38:23;;;;;;;14.60;13.20;;;10.50;99.90;;;-141.84;80.15;18907.50;5051386;28;20640;-60
2022/09/25 01:41:02;;;;;;;16.30;13.43;;;10.40;99.90;;;-141.84;80.83;18940.03;5051657;28;20604;-60
2022/09/25 01:43:38;;;;;;;15.73;14.23;;;10.30;99.90;;;-141.84;81.41;18917.66;5051503;28;20235;-61
2022/09/25 01:46:13;;;;;;;15.67;14.17;;;10.30;99.90;;;-141.84;81.53;18870.94;5051543;28;20189;-59
2022/09/25 01:48:46;;;;;;;16.07;14.57;;;10.30;99.90;;;-141.84;81.79;18875.00;5051969;28;20192;-60
2022/09/25 01:51:21;;;;;;;16.10;13.93;;;10.20;99.90;;;-141.84;81.70;18889.22;5051312;28;20225;-60
2022/09/25 01:53:55;;;;;;;15.63;14.10;;;10.30;99.90;;;-141.84;81.04;18872.97;5050874;28;20240;-61
2022/09/25 01:56:31;;;;;;;15.97;14.37;;;10.30;99.90;;;-141.84;80.41;18862.81;5051267;28;20294;-61
2022/09/25 01:59:08;;;;;;;16.23;14.63;;;10.30;99.90;;;-141.84;80.53;18875.00;5051042;28;20229;-61
2022/09/25 02:01:42;;;;;;;15.97;14.37;;;10.30;99.90;;;-141.84;80.65;18881.09;5051095;28;20228;-61
2022/09/25 02:04:16;;;;;;;15.50;14.00;;;10.30;99.90;;;-141.84;81.01;18866.88;5051193;28;20189;-62
2022/09/25 02:06:50;;;;;;;16.23;14.63;;;10.20;99.90;;;-141.84;80.76;18858.75;5054999;28;20185;-61
2022/09/25 02:09:29;;;;;;;17.40;15.70;;;10.20;99.90;;;-141.84;81.05;18834.38;5054884;28;20256;-60
2022/09/25 02:12:04;;;;;;;17.80;15.93;;;10.10;99.90;;;-141.84;81.48;18807.94;5055039;28;20231;-61
2022/09/25 02:14:39;;;;;;;17.23;15.53;;;10.10;99.90;;;-141.84;81.73;18812.00;5055218;28;20228;-60
2022/09/25 02:20:30;;;;;;;17.90;16.03;;;10.10;99.90;;;-141.84;81.96;18799.81;5055237;28;20224;-60
2022/09/25 02:22:53;;;;;;;17.23;15.53;;;10.00;99.90;;;-141.84;80.85;18809.97;5055177;28;20224;-61
2022/09/25 02:25:35;;;;;;;18.37;16.47;;;10.10;99.90;;;-141.84;80.50;18836.41;5054858;28;20263;-61
2022/09/25 02:28:04;;;;;;;17.77;15.87;;;10.10;99.90;;;-141.84;80.42;18793.72;5055141;28;20201;-60
2022/09/25 02:30:32;;;;;;;18.43;16.57;;;10.20;99.90;;;-141.84;80.67;18805.91;5055351;28;20205;-60
2022/09/25 02:33:02;;;;;;;19.00;17.07;;;10.20;99.90;;;-141.84;80.53;18830.31;5055128;28;20755;-60
2022/09/25 02:35:30;;;;;;;18.53;16.53;;;10.20;99.90;;;-141.84;80.20;18826.25;5054536;28;20600;-60
2022/09/25 02:37:59;;;;;;;19.47;17.47;;;10.20;99.90;;;-141.84;80.15;18820.16;5054776;28;20225;-61
2022/09/25 02:40:41;;;;;;;18.53;16.73;;;10.30;99.90;;;-141.84;79.81;18820.16;5054414;28;20731;-61
2022/09/25 02:43:24;;;;;;;18.53;16.73;;;10.30;99.90;;;-141.84;79.04;18846.56;5054841;28;20189;-60
2022/09/25 02:46:08;;;;;;;17.43;15.73;;;10.40;99.90;;;-141.84;79.21;18834.38;5055153;28;20189;-61
2022/09/25 02:48:50;;;;;;;17.50;15.70;;;10.40;99.90;;;-141.84;78.66;18775.44;5054659;28;20209;-61
2022/09/25 02:51:29;;;;;;;18.00;16.20;;;10.40;99.90;;;-141.84;77.81;18883.13;5054175;28;20234;-61
2022/09/25 02:54:17;;;;;;;16.90;15.30;;;10.40;99.90;;;-141.84;77.04;18866.88;5054132;28;20290;-61
2022/09/25 02:56:54;;;;;;;16.60;14.93;;;10.50;99.90;;;-141.84;77.46;18842.50;5054624;28;20229;-61
2022/09/25 02:59:36;;;;;;;16.00;14.40;;;10.40;99.90;;;-141.84;77.59;18805.91;5054256;28;20233;-62
2022/09/25 03:02:05;;;;;;;15.50;14.10;;;10.50;99.90;;;-141.84;78.64;18842.50;5054354;28;20228;-61
2022/09/25 03:04:37;;;;;;;17.60;15.83;;;10.40;99.90;;;-141.84;78.87;18832.34;5054092;28;20229;-62
2022/09/25 03:07:07;;;;;;;16.10;14.60;;;10.50;99.90;;;-141.84;78.52;18866.88;5054091;28;20196;-61
2022/09/25 03:09:39;;;;;;;15.93;14.43;;;10.50;99.90;;;-141.84;77.93;18828.28;5054349;28;20540;-60
2022/09/25 03:12:07;;;;;;;16.53;14.93;;;10.50;99.90;;;-141.84;78.52;18828.28;5053982;28;20233;-61
2022/09/25 03:14:35;;;;;;;17.07;15.47;;;10.50;99.90;;;-141.84;77.81;18864.84;5053869;28;20224;-60
2022/09/25 03:17:06;;;;;;;16.47;14.80;;;10.60;99.90;;;-141.84;77.54;18854.69;5053667;28;20233;-62
2022/09/25 03:19:37;;;;;;;16.67;15.03;;;10.60;99.90;;;-141.84;78.06;18862.81;5054207;28;20228;-60
2022/09/25 03:22:05;;;;;;;17.10;15.50;;;10.60;99.90;;;-141.84;77.96;18866.88;5053520;28;20510;-59
2022/09/25 03:24:33;;;;;;;15.90;14.40;;;10.50;99.90;;;-141.84;78.15;18834.38;5054299;28;20209;-60
2022/09/25 03:27:01;;;;;;;15.90;14.40;;;10.50;99.90;;;-141.84;78.73;18812.00;5053661;28;20274;-60
2022/09/25 03:29:29;;;;;;;16.23;14.73;;;10.40;99.90;;;-141.84;78.89;18814.03;5053924;28;20300;-61
2022/09/25 03:31:57;;;;;;;15.80;14.23;;;10.40;99.90;;;-141.84;79.21;18807.94;5053630;28;20237;-61
2022/09/25 03:34:26;;;;;;;17.23;15.53;;;10.40;99.90;;;-141.84;79.40;18824.22;5053682;28;20251;-60
2022/09/25 03:36:55;;;;;;;16.30;14.70;;;10.40;99.90;;;-141.84;79.29;18767.31;5053896;28;20247;-61
2022/09/25 03:39:23;;;;;;;16.97;15.30;;;10.40;99.90;;;-141.84;79.47;18844.53;5053276;28;20221;-59
2022/09/25 03:41:51;;;;;;;16.37;14.80;;;10.40;99.90;;;-141.84;79.24;18822.19;5053465;28;20239;-62
2022/09/25 03:44:19;;;;;;;17.23;15.63;;;10.50;99.90;;;-141.84;78.76;18797.78;5053591;28;20233;-61
2022/09/25 03:46:47;;;;;;;16.33;14.73;;;10.50;99.90;;;-141.84;78.37;18824.22;5053364;28;20225;-61
2022/09/25 03:49:15;;;;;;;15.53;14.03;;;10.60;99.90;;;-141.84;78.76;18807.94;5053625;28;20551;-61
2022/09/25 03:51:43;;;;;;;15.87;14.40;;;10.60;99.90;;;-141.84;78.77;18822.19;5053794;28;20217;-60
2022/09/25 03:54:12;;;;;;;16.40;14.80;;;10.60;99.90;;;-141.84;79.07;18822.19;5052926;28;20229;-60
2022/09/25 03:56:41;;;;;;;16.73;15.13;;;10.70;99.90;;;-141.84;78.94;18793.72;5053268;28;20236;-60
2022/09/25 03:59:09;;;;;;;15.73;14.13;;;10.60;99.90;;;-141.84;79.05;18795.75;5053441;28;20225;-61
2022/09/25 04:01:37;;;;;;;15.60;14.20;;;10.60;99.90;;;-141.84;79.24;18799.81;5053249;28;20230;-59
2022/09/25 04:04:05;;;;;;;16.67;15.07;;;10.60;99.90;;;-141.84;79.03;18805.91;5053340;28;20241;-60
2022/09/25 04:06:33;;;;;;;15.10;13.67;;;10.60;99.90;;;-141.84;78.85;18803.88;5014047;28;20253;-62
2022/09/25 04:09:01;;;;;;;17.60;14.73;;;10.60;99.90;;;-141.84;78.95;18781.53;5012944;28;20234;-61
2022/09/25 04:11:31;;;;;;;16.70;15.00;;;10.60;99.90;;;-141.84;79.29;18773.41;5012913;28;20722;-60
2022/09/25 04:13:59;;;;;;;16.10;14.60;;;10.60;99.90;;;-141.84;79.08;18803.88;5013130;28;20228;-59
2022/09/25 04:16:28;;;;;;;16.97;15.33;;;10.70;99.90;;;-141.84;79.02;18765.28;5012952;28;20748;-60
2022/09/25 04:18:56;;;;;;;16.60;15.00;;;10.60;99.90;;;-141.84;79.25;18793.72;5013745;28;20245;-60
2022/09/25 04:21:24;;;;;;;16.37;14.77;;;10.60;99.90;;;-141.84;78.42;18797.78;5012851;28;20230;-60
2022/09/25 04:26:39;;;;;;;17.30;15.50;;;10.70;99.90;;;-141.84;78.55;18791.69;5012917;28;20253;-60
2022/09/25 04:29:07;;;;;;;17.37;15.70;;;10.70;99.90;;;-141.84;78.52;18826.25;5012089;28;20325;-61
2022/09/25 04:31:35;;;;;;;17.17;15.57;;;10.70;99.90;;;-141.84;78.75;18795.75;5012822;28;20230;-60
2022/09/25 04:34:03;;;;;;;16.73;15.07;;;10.70;99.90;;;-141.84;78.22;18785.59;5013025;28;20239;-60
2022/09/25 04:36:31;;;;;;;17.47;15.77;;;10.70;99.90;;;-141.84;78.81;18822.19;5013329;28;20207;-61
2022/09/25 04:38:59;;;;;;;17.73;16.03;;;10.80;99.90;;;-141.84;79.24;18809.97;5012638;28;20766;-61
2022/09/25 04:41:27;;;;;;;17.23;15.53;;;10.80;99.90;;;-141.84;77.77;18830.31;5012580;28;20238;-61
2022/09/25 04:43:56;;;;;;;18.23;16.33;;;10.80;99.90;;;-141.84;77.55;18826.25;5012835;28;20234;-60
2022/09/25 04:46:24;;;;;;;19.10;17.20;;;10.80;99.90;;;-141.84;77.36;18842.50;5012695;28;20234;-58
2022/09/25 04:48:52;;;;;;;18.63;16.73;;;10.80;99.90;;;-141.84;77.78;18846.56;5012861;28;20199;-60
2022/09/25 04:51:20;;;;;;;18.37;16.67;;;10.80;99.90;;;-141.84;78.17;18830.31;5012228;28;20281;-61
2022/09/25 04:53:48;;;;;;;18.17;16.27;;;10.80;99.90;;;-141.84;78.54;18812.00;5011953;28;20242;-60
2022/09/25 04:56:16;;;;;;;18.53;16.67;;;10.80;99.90;;;-141.84;79.37;18791.69;5012068;28;20226;-60
2022/09/25 04:58:46;;;;;;;19.03;17.10;;;10.80;99.90;;;-141.84;79.75;18809.97;5012545;28;20222;-60
2022/09/25 05:01:19;;;;;;;18.67;16.70;;;10.70;99.90;;;-141.84;79.89;18799.81;5012508;28;20195;-60
2022/09/25 05:03:48;;;;;;;19.07;17.10;;;10.80;99.90;;;-141.84;79.70;18818.09;5012765;28;20237;-59
2022/09/25 05:06:17;;;;;;;19.33;16.67;;;10.80;99.90;;;-141.84;79.73;18816.06;5029975;28;20233;-59
2022/09/25 05:08:48;;;;;;;18.83;17.03;;;10.90;99.90;;;-141.84;79.82;18767.31;5045894;28;20279;-59
2022/09/25 05:11:16;;;;;;;18.80;16.90;;;10.80;99.90;;;-141.84;79.88;18779.50;5051744;28;20236;-59
2022/09/25 05:13:46;;;;;;;18.03;16.30;;;10.80;99.90;;;-141.84;79.84;18785.59;5051584;28;20237;-59
2022/09/25 05:16:14;;;;;;;18.50;16.10;;;10.80;99.90;;;-141.84;80.27;18769.34;5051773;28;20209;-60
2022/09/25 05:18:44;;;;;;;18.60;16.57;;;10.80;99.90;;;-141.84;80.06;18785.59;5052150;28;20212;-59
2022/09/25 05:21:12;;;;;;;18.00;16.20;;;10.90;99.90;;;-141.84;80.23;18803.88;5051385;28;20363;-59
2022/09/25 05:23:40;;;;;;;17.70;15.90;;;10.90;99.90;;;-141.84;80.06;18773.41;5051094;28;20751;-60
2022/09/25 05:26:09;;;;;;;19.23;17.33;;;10.90;99.90;;;-141.84;80.19;18779.50;5051696;28;20267;-60
2022/09/25 05:28:38;;;;;;;17.90;16.10;;;10.90;99.90;;;-141.84;80.23;18787.63;5051604;28;20598;-60
2022/09/25 05:31:07;;;;;;;17.40;15.70;;;10.90;99.90;;;-141.84;80.22;18783.56;5051587;28;20208;-60
2022/09/25 05:33:35;;;;;;;17.80;16.03;;;10.90;99.90;;;-141.84;79.47;18789.66;5051405;28;20229;-59
2022/09/25 05:36:07;;;;;;;19.20;17.27;;;11.00;99.90;;;-141.84;78.83;18818.09;5051451;28;20240;-58
2022/09/25 05:38:38;;;;;;;18.20;16.47;;;11.10;99.90;;;-141.84;78.51;18830.31;5050742;28;20232;-59
2022/09/25 05:41:09;;;;;;;19.37;17.37;;;11.10;99.90;;;-141.84;78.65;18793.72;5051169;28;20278;-60
2022/09/25 05:43:41;;;;;;;17.33;15.63;;;11.10;99.90;;;-141.84;79.04;18783.56;5050924;28;20700;-59
2022/09/25 05:46:11;;;;;;;18.23;16.20;;;11.10;99.90;;;-141.84;78.99;18807.94;5051532;28;20192;-60
2022/09/25 05:48:40;;;;;;;18.37;16.57;;;11.10;99.90;;;-141.84;79.20;18801.84;5051429;28;20573;-59
2022/09/25 05:51:10;;;;;;;17.77;16.03;;;11.10;99.90;;;-141.84;79.27;18777.47;5050972;28;20607;-59
2022/09/25 05:53:38;;;;;;;16.40;14.80;;;11.10;99.90;;;-141.84;79.75;18777.47;5050663;28;20298;-61
2022/09/25 05:56:07;;;;;;;18.70;16.83;;;11.10;99.90;;;-141.84;79.36;18797.78;5050929;28;20255;-60
2022/09/25 05:58:36;;;;;;;17.80;16.10;;;11.10;99.90;;;-141.84;79.46;18797.78;5051043;28;20228;-61
2022/09/25 06:01:06;;;;;;;17.67;15.87;;;11.20;99.90;;;-141.84;79.88;18777.47;5051066;28;20209;-60
2022/09/25 06:03:35;;;;;;;19.57;17.50;;;11.20;99.90;;;-141.84;79.58;18795.75;5051565;28;20205;-60
2022/09/25 06:06:03;;;;;;;19.43;17.50;;;11.20;99.90;;;-141.84;79.54;18830.31;5050826;28;20233;-60
2022/09/25 06:08:34;;;;;;;18.17;16.37;;;11.30;99.90;;;-141.84;79.61;18805.91;5050682;28;20575;-61
2022/09/25 06:11:04;;;;;;;18.20;16.37;;;11.30;99.90;;;-141.84;80.07;18822.19;5050855;28;20224;-58
2022/09/25 06:13:33;;;;;;;19.27;17.27;;;11.30;99.90;;;-141.84;79.87;18785.59;5050963;28;20229;-60
2022/09/25 06:16:02;;;;;;;18.10;16.40;;;11.40;99.90;;;-141.84;79.86;18832.34;5051056;28;20287;-60
2022/09/25 06:18:32;;;;;;;18.60;16.60;;;11.40;99.90;;;-141.84;79.39;18844.53;5051202;28;20635;-59
2022/09/25 06:21:02;;;;;;;18.77;16.97;;;11.50;99.90;;;-141.84;78.50;18842.50;5050872;28;20232;-59
2022/09/25 06:23:32;;;;;;;18.47;16.50;;;11.60;99.90;;;-141.84;78.89;18830.31;5050592;28;20607;-61
2022/09/25 06:26:01;;;;;;;19.50;17.53;;;11.60;99.90;;;-141.84;78.46;18836.41;5050920;28;20232;-60
2022/09/25 06:28:30;;;;;;;17.67;15.93;;;11.60;99.90;;;-141.84;78.69;18828.28;5050844;28;20478;-60
2022/09/25 06:31:00;;;;;;;18.40;16.53;;;11.60;99.90;;;-141.84;78.74;18842.50;5051476;28;20213;-60
2022/09/25 06:33:29;;;;;;;19.13;17.27;;;11.70;99.90;;;-141.84;78.62;18879.06;5050764;28;20225;-60
2022/09/25 06:35:59;;;;;;;18.87;16.97;;;11.80;99.90;;;-141.84;78.06;18870.94;5050560;28;20232;-61
2022/09/25 06:38:27;;;;;;;18.27;16.47;;;11.90;99.90;;;-141.84;77.41;18897.34;5050279;28;20720;-60
2022/09/25 06:40:59;;;;;;;20.03;18.03;;;12.00;99.90;;;-141.84;77.55;18891.25;5050721;28;20225;-60
2022/09/25 06:43:30;;;;;;;19.23;17.27;;;12.00;99.90;;;-141.84;77.01;18905.47;5050781;28;20648;-61
2022/09/25 06:46:02;;;;;;;18.83;16.87;;;12.00;99.90;;;-141.84;77.22;18909.53;5051353;28;20193;-61
2022/09/25 06:48:31;;;;;;;19.80;17.80;;;12.10;99.90;;;-141.84;76.81;18911.56;5050925;28;20223;-59
2022/09/25 06:51:01;;;;;;;19.27;17.27;;;12.10;99.90;;;-141.84;76.54;18942.06;5051242;28;20225;-60
2022/09/25 06:53:30;;;;;;;19.50;17.53;;;12.10;99.90;;;-141.84;76.51;18927.84;5053930;28;20241;-59
2022/09/25 06:56:00;;;;;;;17.63;15.90;;;12.20;99.90;;;-141.84;76.76;18915.63;5054482;28;20225;-60
2022/09/25 06:58:30;;;;;;;17.80;15.90;;;12.30;99.90;;;-141.84;76.97;18940.03;5054650;28;20294;-60
2022/09/25 07:00:58;;;;;;;19.03;17.13;;;12.30;99.90;;;-141.84;76.51;18905.47;5054988;28;20201;-60
2022/09/25 07:03:43;;;;;;;18.53;16.73;;;12.40;99.90;;;-141.84;76.03;18938.00;5054458;28;20221;-60
2022/09/25 07:06:15;;;;;;;18.90;17.10;;;12.40;99.90;;;-141.84;75.47;18998.94;5054139;28;20237;-61
2022/09/25 07:08:45;;;;;;;19.50;17.50;;;12.50;99.90;;;-141.84;74.54;18980.66;5053930;28;20225;-60
2022/09/25 07:11:18;;;;;;;20.03;18.07;;;12.50;99.90;;;-141.84;74.66;18988.78;5054007;28;20229;-61
2022/09/25 07:13:48;;;;;;;17.27;15.63;;;12.50;99.90;;;-141.84;75.05;18980.66;5053760;28;20591;-60
2022/09/25 07:16:19;;;;;;;19.47;17.53;;;12.60;99.90;;;-141.84;73.75;19013.16;5053867;28;20254;-60
2022/09/25 07:18:48;;;;;;;19.10;17.30;;;12.70;99.90;;;-141.84;73.35;19066.00;5054350;28;20616;-62
2022/09/25 07:21:18;;;;;;;19.10;17.10;;;12.70;99.90;;;-141.84;73.49;19041.63;5053797;28;20282;-59
2022/09/25 07:23:48;;;;;;;18.87;17.07;;;12.70;99.90;;;-141.84;74.18;19033.50;5053738;28;20441;-59
2022/09/25 07:26:21;;;;;;;19.17;17.30;;;12.80;99.90;;;-141.84;73.97;19057.88;5053929;28;20599;-60
2022/09/25 07:28:56;;;;;;;20.33;18.17;;;12.80;99.90;;;-141.84;73.92;19059.91;5053821;28;20324;-60
2022/09/25 07:31:27;;;;;;;20.97;18.87;;;12.80;99.90;;;-141.84;74.31;19061.94;5054117;28;20224;-61
2022/09/25 07:33:55;;;;;;;20.90;18.80;;;12.90;99.90;;;-141.84;74.27;19035.53;5054172;28;20205;-60
2022/09/25 07:36:23;;;;;;;19.50;17.70;;;12.90;99.90;;;-141.84;73.82;19070.06;5053342;28;20271;-61
2022/09/25 07:38:52;;;;;;;21.03;19.03;;;12.90;99.90;;;-141.84;73.34;19043.66;5053406;28;20264;-60
2022/09/25 07:41:23;;;;;;;20.20;18.07;;;12.90;99.90;;;-141.84;71.36;19092.41;5053503;28;20225;-60
2022/09/25 07:43:52;;;;;;;19.83;17.83;;;12.90;99.90;;;-141.84;72.18;19116.81;5053703;28;20225;-59
2022/09/25 07:46:43;;;;;;;19.10;17.30;;;13.00;99.90;;;-141.84;72.33;19102.56;5053385;28;20785;-61
2022/09/25 07:49:11;;;;;;;20.50;18.50;;;13.10;99.90;;;-141.84;71.93;19147.28;5053312;28;20190;-61
2022/09/25 07:51:39;;;;;;;20.80;18.70;;;13.20;99.90;;;-141.84;69.94;19208.25;5053649;28;20205;-61
2022/09/25 07:54:08;;;;;;;18.83;17.13;;;13.40;99.90;;;-141.84;69.60;19281.41;5052552;28;20245;-61
2022/09/25 07:56:37;;;;;;;19.60;17.70;;;13.60;99.90;;;-141.84;69.02;19283.44;5053114;28;20233;-60
2022/09/25 07:59:06;;;;;;;19.27;17.48;;;13.70;99.90;;;-141.84;67.99;19330.16;5052819;28;20728;-61
2022/09/25 08:01:34;;;;;;;18.65;16.85;;;13.80;99.90;;;-141.84;68.29;19342.34;5052909;28;20225;-60
2022/09/25 08:04:09;;;;;;;18.67;16.98;;;14.00;99.90;;;-141.84;67.43;19366.75;5051734;28;20220;-60
2022/09/25 08:06:38;;;;;;;18.92;17.13;;;14.00;99.90;;;-141.84;66.90;19437.88;5053412;28;20251;-60
2022/09/25 08:09:06;;;;;;;18.17;16.48;;;14.10;99.90;;;-141.84;67.09;19391.13;5052604;28;20282;-62
2022/09/25 08:11:39;;;;;;;18.30;16.60;;;14.30;99.90;;;-141.84;67.20;19446.00;5052760;28;20312;-61
2022/09/25 08:14:07;;;;;;;18.30;16.50;;;14.40;99.90;;;-141.84;67.26;19443.97;5052870;28;20228;-60
2022/09/25 08:16:35;;;;;;;19.77;17.73;;;14.50;99.90;;;-141.84;66.98;19433.81;5052677;28;20217;-61
2022/09/25 08:19:03;;;;;;;18.13;16.45;;;14.40;99.90;;;-141.84;66.48;19517.13;5052617;28;20664;-61
2022/09/25 08:21:32;;;;;;;19.33;17.45;;;14.40;99.90;;;-141.84;66.23;19504.94;5052855;28;20217;-61
2022/09/25 08:24:00;;;;;;;20.25;18.38;;;14.50;99.90;;;-141.84;65.46;19565.91;5052349;28;20232;-60
2022/09/25 08:26:30;;;;;;;19.45;17.58;;;14.50;99.90;;;-141.84;65.37;19590.28;5052437;28;20242;-60
2022/09/25 08:29:00;;;;;;;20.27;18.38;;;14.50;99.90;;;-141.84;64.05;19649.22;5052682;28;20510;-61
2022/09/25 08:31:28;;;;;;;19.33;17.33;;;14.50;99.90;;;-141.84;64.43;19691.91;5052571;28;20233;-60
2022/09/25 08:33:56;;;;;;;19.33;17.52;;;14.70;99.90;;;-141.84;63.95;19732.53;5052966;28;20590;-62
2022/09/25 08:36:44;;;;;;;19.48;17.67;;;14.90;99.90;;;-141.84;62.00;19824.00;5052893;28;20256;-59
2022/09/25 08:39:12;;;;;;;18.60;16.65;;;14.90;99.90;;;-141.84;62.28;19868.72;5052012;28;20732;-61
2022/09/25 08:41:50;;;;;;;19.55;17.67;;;15.00;99.90;;;-141.84;61.90;19909.34;5052185;28;20248;-61
2022/09/25 08:44:28;;;;;;;18.27;16.58;;;15.00;99.90;;;-141.84;61.27;19984.56;5052529;28;20244;-61
2022/09/25 08:50:00;;;;;;;17.23;15.52;;;15.40;99.90;;;-141.84;59.65;20185.78;5052355;28;20229;-61
2022/09/25 08:52:30;;;;;;;18.30;16.25;;;15.50;99.90;;;-141.84;58.72;20313.84;5052250;28;20224;-61
2022/09/25 08:54:59;;;;;;;16.23;14.63;;;15.70;99.90;;;-141.84;58.18;20382.94;5052418;28;20225;-62
2022/09/25 08:57:36;;;;;;;18.52;16.73;;;16.00;99.90;;;-141.84;56.72;20502.88;5052288;28;20588;-60
2022/09/25 09:00:13;;;;;;;16.75;15.15;;;16.30;99.90;;;-141.84;55.60;20614.66;5052157;28;20278;-61
2022/09/25 09:02:47;;;;;;;16.38;14.77;;;16.50;99.90;;;-141.84;55.90;20630.94;5052004;28;20625;-60
2022/09/25 09:05:25;;;;;;;17.73;16.05;;;16.60;99.90;;;-141.84;55.79;20569.94;5052180;28;20235;-60
2022/09/25 09:07:59;;;;;;;17.10;15.40;;;16.50;99.90;;;-141.84;54.89;20667.53;5052101;28;20232;-61
2022/09/25 09:10:36;;;;;;;15.82;14.23;;;16.60;99.90;;;-141.84;56.03;20653.28;5051539;28;20239;-60
2022/09/25 09:13:17;;;;;;;15.45;13.95;;;16.70;99.90;;;-141.84;56.50;20590.28;5052229;28;20194;-60
2022/09/25 09:15:53;;;;;;;17.08;15.38;;;16.80;99.90;;;-141.84;53.86;20724.44;5051622;28;20205;-61
2022/09/25 09:18:26;;;;;;;16.17;14.57;;;16.90;99.90;;;-141.84;53.82;20761.03;5051894;28;20282;-59
2022/09/25 09:20:57;;;;;;;16.98;15.10;;;17.00;99.90;;;-141.84;53.44;20809.81;5051824;28;20237;-61
2022/09/25 09:23:33;;;;;;;14.55;13.15;;;17.10;99.90;;;-141.84;53.41;20836.25;5051670;28;20236;-61
2022/09/25 09:26:04;;;;;;;14.57;13.18;;;17.30;99.90;;;-141.84;53.37;20854.53;5051450;28;20235;-60
2022/09/25 09:29:04;;;;;;;14.48;13.07;;;17.40;99.90;;;-141.84;53.82;20858.59;5051889;28;20573;-60
2022/09/25 09:31:51;;;;;;;13.50;12.10;;;17.50;99.90;;;-141.84;53.25;20824.06;5051197;28;20572;-61
2022/09/25 09:34:46;;;;;;;14.57;13.07;;;17.60;99.90;;;-141.84;54.65;20791.53;5051521;28;20194;-60
2022/09/25 09:37:49;;;;;;;16.05;13.93;;;17.40;99.90;;;-141.84;52.98;20850.47;5051306;28;20716;-60
2022/09/25 09:40:32;;;;;;;15.30;13.77;;;17.50;99.90;;;-141.84;53.21;20828.13;5051416;28;20194;-60
2022/09/25 09:43:12;;;;;;;16.25;14.63;;;17.60;99.90;;;-141.84;nan;20797.63;5051938;28;20547;-60
2022/09/25 09:45:51;;;;;;;16.77;15.07;;;17.30;99.90;;;-141.84;54.63;20765.09;5051709;28;20201;-62
2022/09/25 09:48:31;;;;;;;16.55;14.93;;;17.20;99.90;;;-141.84;55.38;20763.06;5051155;28;20312;-61
2022/09/25 09:51:09;;;;;;;16.10;14.02;;;17.00;99.90;;;-141.84;56.13;20726.47;5051286;28;20294;-61
2022/09/25 09:53:44;;;;;;;16.60;14.90;;;17.00;99.90;;;-141.84;56.01;20677.69;5051226;28;20600;-62
2022/09/25 09:56:18;;;;;;;17.17;15.38;;;16.80;99.90;;;-141.84;56.73;20669.56;5050851;28;20229;-60
2022/09/25 09:58:53;;;;;;;17.02;15.23;;;16.70;99.90;;;-141.84;56.70;20653.28;5051272;28;20285;-61
2022/09/25 10:01:26;;;;;;;17.00;15.20;;;16.60;99.90;;;-141.84;56.49;20643.13;5051006;28;20239;-60
2022/09/25 10:04:18;;;;;;;16.15;14.55;;;16.60;99.90;;;-141.84;56.97;20643.13;5051001;28;20196;-62
2022/09/25 10:06:55;;;;;;;15.52;13.98;;;16.60;99.90;;;-141.84;56.49;20673.63;5051694;28;20181;-60
2022/09/25 10:09:24;;;;;;;15.43;13.90;;;16.80;99.90;;;-141.84;56.50;20671.59;5050629;28;20229;-61
2022/09/25 10:12:03;;;;;;;15.88;14.27;;;16.90;99.90;;;-141.84;56.00;20748.84;5051002;28;20225;-61
2022/09/25 10:14:39;;;;;;;16.50;14.90;;;17.00;99.90;;;-141.84;56.46;20691.91;5050676;28;20243;-63
2022/09/25 10:17:11;;;;;;;15.13;13.52;;;17.10;99.90;;;-141.84;55.66;20710.22;5050848;28;20236;-61
2022/09/25 10:19:51;;;;;;;14.70;13.23;;;17.10;99.90;;;-141.84;55.60;20732.56;5051180;28;20229;-62
2022/09/25 10:22:24;;;;;;;17.20;15.40;;;17.20;99.90;;;-141.84;54.84;20744.78;5050868;28;20193;-60
2022/09/25 10:24:57;;;;;;;16.30;14.60;;;17.40;99.90;;;-141.84;56.05;20683.78;5050873;28;20649;-62
2022/09/25 10:27:32;;;;;;;17.38;15.68;;;17.00;99.90;;;-141.84;56.85;20655.31;5053555;28;20229;-60